KUNO Weather Reports


Display with metric or nautical units.
time (UTC)temp
F
wind
direction
speed
MPH
gust
MPH
rain 1hr
in
rain 24hr
in
rain mn
in
humidity
%
barometer
mb
20200711083017 71 0 0.0 0.0 0.00 0.00 0.00 86 1017.0
20200711080018 71 0 0.0 0.0 0.00 0.00 0.00 86 1017.0
20200711073021 69 0 0.0 0.0 0.00 0.00 0.00 92 1017.0
20200711070021 69 0 0.0 0.0 0.00 0.00 0.00 92 1017.0
20200711063019 72 0 0.0 0.0 0.00 0.00 0.00 87 1015.0
20200711060016 72 0 0.0 0.0 0.00 0.00 0.00 87 1015.0
20200711053016 73 0 0.0 0.0 0.00 0.00 0.00 87 1016.0
20200711050024 73 0 0.0 0.0 0.00 0.00 0.00 87 1016.0
20200711043025 75 0 0.0 0.0 0.00 0.00 0.00 84 1017.0
20200711040027 75 0 0.0 0.0 0.00 0.00 0.00 84 1017.0
20200711033027 78 0 0.0 0.0 0.00 0.00 0.00 76 1017.0
20200711030027 78 0 0.0 0.0 0.00 0.00 0.00 76 1017.0
20200711023029 80 260 3.0 0.0 0.00 0.00 0.00 71 1017.0
20200711020024 80 260 3.0 0.0 0.00 0.00 0.00 71 1017.0
20200711013024 85 240 3.0 0.0 0.00 0.00 0.00 61 1017.0
20200711010022 85 240 3.0 0.0 0.00 0.00 0.00 61 1017.0
20200711000016 88 240 6.0 0.0 0.00 0.00 0.00 51 1017.0
20200710233023 90 250 5.0 0.0 0.00 0.00 0.00 48 1017.0
20200710230021 90 250 5.0 0.0 0.00 0.00 0.00 48 1017.0
20200710223019 91 230 5.0 0.0 0.00 0.00 0.00 35 1017.0
20200710220023 91 230 5.0 0.0 0.00 0.00 0.00 35 1017.0
20200710213023 92 0 5.0 0.0 0.00 0.00 0.00 37 1017.0
20200710210018 92 0 5.0 0.0 0.00 0.00 0.00 37 1017.0
20200710203020 92 0 0.0 0.0 0.00 0.00 0.00 37 1017.0
20200710200018 92 0 0.0 0.0 0.00 0.00 0.00 37 1017.0
20200710193019 90 0 6.0 0.0 0.00 0.00 0.00 43 1018.0
20200710190028 90 0 6.0 0.0 0.00 0.00 0.00 43 1018.0
20200710183017 88 0 5.0 0.0 0.00 0.00 0.00 46 1018.0
20200710180022 88 0 5.0 0.0 0.00 0.00 0.00 46 1018.0
20200710173023 86 30 5.0 0.0 0.00 0.00 0.00 51 1018.0
20200710170018 86 30 5.0 0.0 0.00 0.00 0.00 51 1018.0
20200710163016 83 0 3.0 0.0 0.00 0.00 0.00 54 1019.0
20200710160024 83 0 3.0 0.0 0.00 0.00 0.00 54 1019.0
20200710153018 82 40 8.0 0.0 0.00 0.00 0.00 58 1018.0
20200710150023 82 40 8.0 0.0 0.00 0.00 0.00 58 1018.0
20200710143022 79 350 5.0 0.0 0.00 0.00 0.00 69 1018.0
20200710140024 79 350 5.0 0.0 0.00 0.00 0.00 69 1018.0
20200710133019 75 340 7.0 0.0 0.00 0.00 0.00 78 1017.0
20200710130020 75 340 7.0 0.0 0.00 0.00 0.00 78 1017.0
20200710123018 71 320 3.0 0.0 0.00 0.00 0.00 90 1016.0
20200710120020 71 320 3.0 0.0 0.00 0.00 0.00 90 1016.0
20200710113024 69 260 3.0 0.0 0.00 0.00 0.00 92 1016.0
20200710110025 69 260 3.0 0.0 0.00 0.00 0.00 92 1016.0
20200710093024 71 300 3.0 0.0 0.00 0.00 0.00 90 1015.0
20200710090018 71 300 3.0 0.0 0.00 0.00 0.00 90 1015.0